sensor_id;sensor_type;location;lat;lon;timestamp;P1;durP1;ratioP1;P2;durP2;ratioP2
21941;SDS011;11135;54.192;15.670;2023-03-01T00:01:11;9.15;;;4.68;;
21941;SDS011;11135;54.192;15.670;2023-03-01T00:04:17;8.93;;;4.22;;
21941;SDS011;11135;54.192;15.670;2023-03-01T00:07:23;8.68;;;4.82;;
21941;SDS011;11135;54.192;15.670;2023-03-01T00:10:29;11.65;;;5.00;;
21941;SDS011;11135;54.192;15.670;2023-03-01T00:13:40;10.68;;;5.13;;
21941;SDS011;11135;54.192;15.670;2023-03-01T00:16:50;10.35;;;5.45;;
21941;SDS011;11135;54.192;15.670;2023-03-01T00:19:56;9.07;;;4.32;;
21941;SDS011;11135;54.192;15.670;2023-03-01T00:23:03;9.55;;;5.13;;
21941;SDS011;11135;54.192;15.670;2023-03-01T00:26:13;9.65;;;5.35;;
21941;SDS011;11135;54.192;15.670;2023-03-01T00:29:18;11.85;;;5.30;;
21941;SDS011;11135;54.192;15.670;2023-03-01T00:32:27;11.55;;;5.63;;
21941;SDS011;11135;54.192;15.670;2023-03-01T00:38:44;11.85;;;5.38;;
21941;SDS011;11135;54.192;15.670;2023-03-01T00:41:50;9.23;;;5.07;;
21941;SDS011;11135;54.192;15.670;2023-03-01T00:44:56;9.10;;;5.00;;
21941;SDS011;11135;54.192;15.670;2023-03-01T00:48:06;9.23;;;5.07;;
21941;SDS011;11135;54.192;15.670;2023-03-01T00:51:13;11.18;;;4.78;;
21941;SDS011;11135;54.192;15.670;2023-03-01T00:54:18;13.25;;;5.30;;
21941;SDS011;11135;54.192;15.670;2023-03-01T00:57:25;12.07;;;4.97;;
21941;SDS011;11135;54.192;15.670;2023-03-01T01:00:32;9.93;;;4.78;;
21941;SDS011;11135;54.192;15.670;2023-03-01T01:03:41;9.13;;;4.60;;
21941;SDS011;11135;54.192;15.670;2023-03-01T01:06:46;7.50;;;4.03;;
21941;SDS011;11135;54.192;15.670;2023-03-01T01:09:54;9.02;;;4.28;;
21941;SDS011;11135;54.192;15.670;2023-03-01T01:13:01;8.25;;;4.60;;
21941;SDS011;11135;54.192;15.670;2023-03-01T01:19:26;9.23;;;4.75;;
21941;SDS011;11135;54.192;15.670;2023-03-01T01:22:31;7.60;;;5.18;;
21941;SDS011;11135;54.192;15.670;2023-03-01T01:25:37;10.57;;;5.68;;
21941;SDS011;11135;54.192;15.670;2023-03-01T01:28:43;8.65;;;4.43;;
21941;SDS011;11135;54.192;15.670;2023-03-01T01:31:48;9.75;;;4.57;;
21941;SDS011;11135;54.192;15.670;2023-03-01T01:34:59;10.35;;;5.05;;
21941;SDS011;11135;54.192;15.670;2023-03-01T01:38:04;11.43;;;4.80;;
21941;SDS011;11135;54.192;15.670;2023-03-01T01:41:13;10.30;;;4.90;;
21941;SDS011;11135;54.192;15.670;2023-03-01T01:44:21;10.52;;;5.55;;
21941;SDS011;11135;54.192;15.670;2023-03-01T01:47:29;12.60;;;5.70;;
21941;SDS011;11135;54.192;15.670;2023-03-01T01:50:39;11.70;;;6.05;;
21941;SDS011;11135;54.192;15.670;2023-03-01T01:53:47;10.18;;;5.57;;
21941;SDS011;11135;54.192;15.670;2023-03-01T01:56:55;10.73;;;5.25;;
21941;SDS011;11135;54.192;15.670;2023-03-01T02:00:05;8.93;;;4.57;;
21941;SDS011;11135;54.192;15.670;2023-03-01T02:03:12;11.82;;;5.70;;
21941;SDS011;11135;54.192;15.670;2023-03-01T02:06:24;12.30;;;5.65;;
21941;SDS011;11135;54.192;15.670;2023-03-01T02:09:32;9.53;;;5.73;;
21941;SDS011;11135;54.192;15.670;2023-03-01T02:12:38;11.30;;;5.35;;
21941;SDS011;11135;54.192;15.670;2023-03-01T02:15:45;11.90;;;5.97;;
21941;SDS011;11135;54.192;15.670;2023-03-01T02:18:54;12.38;;;6.20;;
21941;SDS011;11135;54.192;15.670;2023-03-01T02:22:05;11.60;;;6.00;;
21941;SDS011;11135;54.192;15.670;2023-03-01T02:28:50;12.75;;;6.05;;
21941;SDS011;11135;54.192;15.670;2023-03-01T02:31:56;11.85;;;5.45;;
21941;SDS011;11135;54.192;15.670;2023-03-01T02:35:03;13.07;;;6.25;;
21941;SDS011;11135;54.192;15.670;2023-03-01T02:38:13;14.32;;;6.80;;
21941;SDS011;11135;54.192;15.670;2023-03-01T02:41:21;12.82;;;6.43;;
21941;SDS011;11135;54.192;15.670;2023-03-01T02:44:33;12.50;;;5.93;;
21941;SDS011;11135;54.192;15.670;2023-03-01T02:47:40;9.77;;;5.20;;
21941;SDS011;11135;54.192;15.670;2023-03-01T02:50:54;13.35;;;6.63;;
21941;SDS011;11135;54.192;15.670;2023-03-01T02:54:06;12.82;;;6.60;;
21941;SDS011;11135;54.192;15.670;2023-03-01T02:57:13;12.73;;;7.10;;
21941;SDS011;11135;54.192;15.670;2023-03-01T03:03:31;13.48;;;6.40;;
21941;SDS011;11135;54.192;15.670;2023-03-01T03:06:37;13.93;;;6.68;;
21941;SDS011;11135;54.192;15.670;2023-03-01T03:09:44;14.13;;;7.32;;
21941;SDS011;11135;54.192;15.670;2023-03-01T03:12:52;15.10;;;7.82;;
21941;SDS011;11135;54.192;15.670;2023-03-01T03:16:01;14.10;;;7.35;;
21941;SDS011;11135;54.192;15.670;2023-03-01T03:19:09;15.90;;;8.02;;
21941;SDS011;11135;54.192;15.670;2023-03-01T03:25:25;15.43;;;8.07;;
21941;SDS011;11135;54.192;15.670;2023-03-01T03:28:33;15.02;;;7.57;;
21941;SDS011;11135;54.192;15.670;2023-03-01T03:31:41;16.45;;;7.97;;
21941;SDS011;11135;54.192;15.670;2023-03-01T03:34:52;13.05;;;6.95;;
21941;SDS011;11135;54.192;15.670;2023-03-01T03:37:58;14.07;;;7.85;;
21941;SDS011;11135;54.192;15.670;2023-03-01T03:41:11;15.60;;;7.65;;
21941;SDS011;11135;54.192;15.670;2023-03-01T03:44:16;13.43;;;7.53;;
21941;SDS011;11135;54.192;15.670;2023-03-01T03:47:23;13.02;;;7.10;;
21941;SDS011;11135;54.192;15.670;2023-03-01T03:50:33;14.90;;;8.07;;
21941;SDS011;11135;54.192;15.670;2023-03-01T03:53:43;16.35;;;8.23;;
21941;SDS011;11135;54.192;15.670;2023-03-01T03:56:52;11.82;;;6.00;;
21941;SDS011;11135;54.192;15.670;2023-03-01T04:00:00;14.07;;;7.72;;
21941;SDS011;11135;54.192;15.670;2023-03-01T04:03:09;14.40;;;7.30;;
21941;SDS011;11135;54.192;15.670;2023-03-01T04:06:17;16.30;;;8.25;;
21941;SDS011;11135;54.192;15.670;2023-03-01T04:09:22;16.35;;;7.15;;
21941;SDS011;11135;54.192;15.670;2023-03-01T04:12:30;14.93;;;8.18;;
21941;SDS011;11135;54.192;15.670;2023-03-01T04:15:35;13.85;;;8.40;;
21941;SDS011;11135;54.192;15.670;2023-03-01T04:18:41;19.05;;;9.18;;
21941;SDS011;11135;54.192;15.670;2023-03-01T04:21:49;19.23;;;9.52;;
21941;SDS011;11135;54.192;15.670;2023-03-01T04:24:54;13.02;;;8.35;;
21941;SDS011;11135;54.192;15.670;2023-03-01T04:27:59;17.15;;;8.65;;
21941;SDS011;11135;54.192;15.670;2023-03-01T04:31:08;18.52;;;9.15;;
21941;SDS011;11135;54.192;15.670;2023-03-01T04:34:17;16.40;;;7.72;;
21941;SDS011;11135;54.192;15.670;2023-03-01T04:37:26;17.33;;;8.88;;
21941;SDS011;11135;54.192;15.670;2023-03-01T04:40:31;14.43;;;7.78;;
21941;SDS011;11135;54.192;15.670;2023-03-01T04:43:40;15.55;;;7.57;;
21941;SDS011;11135;54.192;15.670;2023-03-01T04:46:45;18.67;;;9.65;;
21941;SDS011;11135;54.192;15.670;2023-03-01T04:49:54;20.10;;;9.75;;
21941;SDS011;11135;54.192;15.670;2023-03-01T04:53:02;19.13;;;9.35;;
21941;SDS011;11135;54.192;15.670;2023-03-01T04:56:08;16.02;;;8.20;;
21941;SDS011;11135;54.192;15.670;2023-03-01T04:59:16;20.27;;;9.25;;
21941;SDS011;11135;54.192;15.670;2023-03-01T05:02:24;16.52;;;9.90;;
21941;SDS011;11135;54.192;15.670;2023-03-01T05:05:30;16.02;;;9.18;;
21941;SDS011;11135;54.192;15.670;2023-03-01T05:08:39;23.00;;;9.85;;
21941;SDS011;11135;54.192;15.670;2023-03-01T05:11:46;19.67;;;8.50;;
21941;SDS011;11135;54.192;15.670;2023-03-01T05:14:53;17.15;;;9.48;;
21941;SDS011;11135;54.192;15.670;2023-03-01T05:18:00;20.38;;;10.27;;
21941;SDS011;11135;54.192;15.670;2023-03-01T05:21:06;15.43;;;9.55;;
21941;SDS011;11135;54.192;15.670;2023-03-01T05:24:14;15.32;;;8.80;;
21941;SDS011;11135;54.192;15.670;2023-03-01T05:27:20;19.58;;;9.77;;
21941;SDS011;11135;54.192;15.670;2023-03-01T05:30:28;11.70;;;7.30;;
21941;SDS011;11135;54.192;15.670;2023-03-01T05:33:35;14.15;;;7.80;;
21941;SDS011;11135;54.192;15.670;2023-03-01T05:36:40;17.20;;;9.38;;
21941;SDS011;11135;54.192;15.670;2023-03-01T05:39:49;15.80;;;7.72;;
21941;SDS011;11135;54.192;15.670;2023-03-01T05:42:54;19.33;;;8.98;;
21941;SDS011;11135;54.192;15.670;2023-03-01T05:46:02;17.92;;;9.25;;
21941;SDS011;11135;54.192;15.670;2023-03-01T05:49:07;12.75;;;6.93;;
21941;SDS011;11135;54.192;15.670;2023-03-01T05:52:13;16.35;;;8.98;;
21941;SDS011;11135;54.192;15.670;2023-03-01T05:55:23;19.02;;;9.95;;
21941;SDS011;11135;54.192;15.670;2023-03-01T05:58:32;16.00;;;9.15;;
21941;SDS011;11135;54.192;15.670;2023-03-01T06:01:40;17.45;;;9.63;;
21941;SDS011;11135;54.192;15.670;2023-03-01T06:04:45;20.98;;;9.90;;
21941;SDS011;11135;54.192;15.670;2023-03-01T06:07:58;14.82;;;8.15;;
21941;SDS011;11135;54.192;15.670;2023-03-01T06:11:09;17.67;;;9.45;;
21941;SDS011;11135;54.192;15.670;2023-03-01T06:14:19;19.02;;;9.73;;
21941;SDS011;11135;54.192;15.670;2023-03-01T06:17:24;19.88;;;9.35;;
21941;SDS011;11135;54.192;15.670;2023-03-01T06:20:29;20.10;;;9.73;;
21941;SDS011;11135;54.192;15.670;2023-03-01T06:23:37;16.42;;;9.63;;
21941;SDS011;11135;54.192;15.670;2023-03-01T06:26:44;15.73;;;8.95;;
21941;SDS011;11135;54.192;15.670;2023-03-01T06:29:50;21.42;;;11.88;;
21941;SDS011;11135;54.192;15.670;2023-03-01T06:32:58;20.90;;;10.77;;
21941;SDS011;11135;54.192;15.670;2023-03-01T06:36:06;18.58;;;9.45;;
21941;SDS011;11135;54.192;15.670;2023-03-01T06:39:12;18.35;;;9.65;;
21941;SDS011;11135;54.192;15.670;2023-03-01T06:42:24;16.88;;;10.02;;
21941;SDS011;11135;54.192;15.670;2023-03-01T06:45:32;21.83;;;10.05;;
21941;SDS011;11135;54.192;15.670;2023-03-01T06:48:38;19.25;;;9.77;;
21941;SDS011;11135;54.192;15.670;2023-03-01T06:51:43;24.25;;;9.65;;
21941;SDS011;11135;54.192;15.670;2023-03-01T06:54:49;34.33;;;12.15;;
21941;SDS011;11135;54.192;15.670;2023-03-01T06:57:57;29.92;;;11.80;;
21941;SDS011;11135;54.192;15.670;2023-03-01T07:01:05;23.20;;;9.63;;
21941;SDS011;11135;54.192;15.670;2023-03-01T07:04:13;26.83;;;10.38;;
21941;SDS011;11135;54.192;15.670;2023-03-01T07:07:22;22.70;;;9.70;;
21941;SDS011;11135;54.192;15.670;2023-03-01T07:10:27;19.00;;;9.25;;
21941;SDS011;11135;54.192;15.670;2023-03-01T07:13:36;16.83;;;9.02;;
21941;SDS011;11135;54.192;15.670;2023-03-01T07:16:42;20.20;;;10.80;;
21941;SDS011;11135;54.192;15.670;2023-03-01T07:19:51;19.52;;;10.68;;
21941;SDS011;11135;54.192;15.670;2023-03-01T07:22:56;15.50;;;9.13;;
21941;SDS011;11135;54.192;15.670;2023-03-01T07:26:02;30.40;;;11.98;;
21941;SDS011;11135;54.192;15.670;2023-03-01T07:29:10;16.55;;;8.50;;
21941;SDS011;11135;54.192;15.670;2023-03-01T07:32:21;19.75;;;10.05;;
21941;SDS011;11135;54.192;15.670;2023-03-01T07:35:27;21.27;;;11.02;;
21941;SDS011;11135;54.192;15.670;2023-03-01T07:38:36;19.08;;;10.57;;
21941;SDS011;11135;54.192;15.670;2023-03-01T07:41:50;22.00;;;11.40;;
21941;SDS011;11135;54.192;15.670;2023-03-01T07:44:58;18.17;;;8.63;;
21941;SDS011;11135;54.192;15.670;2023-03-01T07:48:04;20.90;;;10.50;;
21941;SDS011;11135;54.192;15.670;2023-03-01T07:51:11;19.85;;;11.20;;
21941;SDS011;11135;54.192;15.670;2023-03-01T07:54:18;18.25;;;10.52;;
21941;SDS011;11135;54.192;15.670;2023-03-01T07:57:24;19.15;;;9.95;;
21941;SDS011;11135;54.192;15.670;2023-03-01T08:00:32;18.17;;;10.27;;
21941;SDS011;11135;54.192;15.670;2023-03-01T08:03:41;16.77;;;9.68;;
21941;SDS011;11135;54.192;15.670;2023-03-01T08:06:48;17.10;;;9.63;;
21941;SDS011;11135;54.192;15.670;2023-03-01T08:09:56;16.25;;;9.27;;
21941;SDS011;11135;54.192;15.670;2023-03-01T08:13:04;16.38;;;8.70;;
21941;SDS011;11135;54.192;15.670;2023-03-01T08:16:15;20.00;;;10.07;;
21941;SDS011;11135;54.192;15.670;2023-03-01T08:19:20;20.35;;;10.57;;
21941;SDS011;11135;54.192;15.670;2023-03-01T08:22:27;17.88;;;9.48;;
21941;SDS011;11135;54.192;15.670;2023-03-01T08:25:34;18.45;;;10.23;;
21941;SDS011;11135;54.192;15.670;2023-03-01T08:28:42;15.05;;;8.40;;
21941;SDS011;11135;54.192;15.670;2023-03-01T08:31:50;18.13;;;9.70;;
21941;SDS011;11135;54.192;15.670;2023-03-01T08:52:20;17.05;;;7.93;;
21941;SDS011;11135;54.192;15.670;2023-03-01T08:55:27;16.50;;;8.00;;
21941;SDS011;11135;54.192;15.670;2023-03-01T08:58:32;13.13;;;7.22;;
21941;SDS011;11135;54.192;15.670;2023-03-01T09:01:42;17.33;;;8.82;;
21941;SDS011;11135;54.192;15.670;2023-03-01T09:04:50;13.57;;;8.45;;
21941;SDS011;11135;54.192;15.670;2023-03-01T09:07:59;16.67;;;8.70;;
21941;SDS011;11135;54.192;15.670;2023-03-01T09:11:07;13.70;;;8.50;;
21941;SDS011;11135;54.192;15.670;2023-03-01T09:14:13;16.02;;;7.97;;
21941;SDS011;11135;54.192;15.670;2023-03-01T09:17:19;10.85;;;5.90;;
21941;SDS011;11135;54.192;15.670;2023-03-01T09:20:25;12.60;;;6.90;;
21941;SDS011;11135;54.192;15.670;2023-03-01T09:23:34;13.13;;;6.70;;
21941;SDS011;11135;54.192;15.670;2023-03-01T09:26:41;11.40;;;5.63;;
21941;SDS011;11135;54.192;15.670;2023-03-01T09:29:53;15.43;;;7.32;;
21941;SDS011;11135;54.192;15.670;2023-03-01T09:32:58;14.00;;;7.53;;
21941;SDS011;11135;54.192;15.670;2023-03-01T09:36:07;15.60;;;8.18;;
21941;SDS011;11135;54.192;15.670;2023-03-01T09:39:17;11.52;;;7.05;;
21941;SDS011;11135;54.192;15.670;2023-03-01T09:42:23;14.68;;;7.63;;
21941;SDS011;11135;54.192;15.670;2023-03-01T09:45:34;11.18;;;7.07;;
21941;SDS011;11135;54.192;15.670;2023-03-01T09:48:41;13.55;;;7.57;;
21941;SDS011;11135;54.192;15.670;2023-03-01T09:51:53;11.88;;;6.65;;
21941;SDS011;11135;54.192;15.670;2023-03-01T09:55:04;11.45;;;5.80;;
21941;SDS011;11135;54.192;15.670;2023-03-01T09:58:27;14.90;;;7.22;;
21941;SDS011;11135;54.192;15.670;2023-03-01T10:01:34;15.50;;;7.43;;
21941;SDS011;11135;54.192;15.670;2023-03-01T10:04:42;14.63;;;8.15;;
21941;SDS011;11135;54.192;15.670;2023-03-01T10:07:53;14.13;;;7.53;;
21941;SDS011;11135;54.192;15.670;2023-03-01T10:11:15;16.10;;;8.30;;
21941;SDS011;11135;54.192;15.670;2023-03-01T10:14:27;13.63;;;7.78;;
21941;SDS011;11135;54.192;15.670;2023-03-01T10:17:35;14.75;;;7.85;;
21941;SDS011;11135;54.192;15.670;2023-03-01T10:20:43;11.68;;;6.70;;
21941;SDS011;11135;54.192;15.670;2023-03-01T10:23:53;12.63;;;6.63;;
21941;SDS011;11135;54.192;15.670;2023-03-01T10:27:04;15.00;;;7.57;;
21941;SDS011;11135;54.192;15.670;2023-03-01T10:30:13;17.40;;;8.30;;
21941;SDS011;11135;54.192;15.670;2023-03-01T10:33:22;18.23;;;9.07;;
21941;SDS011;11135;54.192;15.670;2023-03-01T10:36:28;15.63;;;8.02;;
21941;SDS011;11135;54.192;15.670;2023-03-01T10:39:37;15.50;;;7.93;;
21941;SDS011;11135;54.192;15.670;2023-03-01T10:43:03;16.85;;;9.32;;
21941;SDS011;11135;54.192;15.670;2023-03-01T10:46:19;17.08;;;9.23;;
21941;SDS011;11135;54.192;15.670;2023-03-01T10:49:30;14.93;;;8.77;;
21941;SDS011;11135;54.192;15.670;2023-03-01T10:52:40;13.48;;;7.07;;
21941;SDS011;11135;54.192;15.670;2023-03-01T10:55:56;15.32;;;8.35;;
21941;SDS011;11135;54.192;15.670;2023-03-01T11:05:29;17.83;;;9.13;;
21941;SDS011;11135;54.192;15.670;2023-03-01T11:08:53;12.63;;;8.02;;
21941;SDS011;11135;54.192;15.670;2023-03-01T11:11:59;15.73;;;9.05;;
21941;SDS011;11135;54.192;15.670;2023-03-01T11:18:18;15.25;;;8.38;;
21941;SDS011;11135;54.192;15.670;2023-03-01T11:21:53;15.98;;;9.18;;
21941;SDS011;11135;54.192;15.670;2023-03-01T11:25:01;16.13;;;9.55;;
21941;SDS011;11135;54.192;15.670;2023-03-01T11:31:20;16.17;;;8.15;;
21941;SDS011;11135;54.192;15.670;2023-03-01T11:34:31;14.52;;;8.55;;
21941;SDS011;11135;54.192;15.670;2023-03-01T11:40:55;20.17;;;11.73;;
21941;SDS011;11135;54.192;15.670;2023-03-01T11:44:05;15.63;;;9.55;;
21941;SDS011;11135;54.192;15.670;2023-03-01T11:47:21;15.65;;;9.75;;
21941;SDS011;11135;54.192;15.670;2023-03-01T11:53:57;16.83;;;10.38;;
21941;SDS011;11135;54.192;15.670;2023-03-01T11:57:11;21.48;;;10.45;;
21941;SDS011;11135;54.192;15.670;2023-03-01T12:00:22;13.10;;;8.45;;
21941;SDS011;11135;54.192;15.670;2023-03-01T12:03:40;16.83;;;10.40;;
21941;SDS011;11135;54.192;15.670;2023-03-01T12:06:52;18.38;;;11.43;;
21941;SDS011;11135;54.192;15.670;2023-03-01T12:10:14;17.20;;;9.77;;
21941;SDS011;11135;54.192;15.670;2023-03-01T12:13:27;16.88;;;10.05;;
21941;SDS011;11135;54.192;15.670;2023-03-01T12:20:20;18.95;;;11.05;;
21941;SDS011;11135;54.192;15.670;2023-03-01T12:33:18;15.10;;;9.20;;
21941;SDS011;11135;54.192;15.670;2023-03-01T12:36:31;15.20;;;8.32;;
21941;SDS011;11135;54.192;15.670;2023-03-01T12:39:44;23.17;;;12.52;;
21941;SDS011;11135;54.192;15.670;2023-03-01T12:42:54;22.60;;;13.30;;
21941;SDS011;11135;54.192;15.670;2023-03-01T12:46:20;21.85;;;12.98;;
21941;SDS011;11135;54.192;15.670;2023-03-01T12:49:35;19.00;;;11.52;;
21941;SDS011;11135;54.192;15.670;2023-03-01T12:52:46;18.83;;;11.48;;
21941;SDS011;11135;54.192;15.670;2023-03-01T12:55:53;19.10;;;12.18;;
21941;SDS011;11135;54.192;15.670;2023-03-01T12:59:01;20.45;;;11.15;;
21941;SDS011;11135;54.192;15.670;2023-03-01T13:02:10;23.08;;;13.27;;
21941;SDS011;11135;54.192;15.670;2023-03-01T13:05:36;19.98;;;12.73;;
21941;SDS011;11135;54.192;15.670;2023-03-01T13:08:49;28.13;;;14.95;;
21941;SDS011;11135;54.192;15.670;2023-03-01T13:15:27;22.70;;;12.80;;
21941;SDS011;11135;54.192;15.670;2023-03-01T13:18:33;20.17;;;12.73;;
21941;SDS011;11135;54.192;15.670;2023-03-01T13:21:43;22.67;;;12.70;;
21941;SDS011;11135;54.192;15.670;2023-03-01T13:24:51;20.98;;;12.27;;
21941;SDS011;11135;54.192;15.670;2023-03-01T13:38:47;25.27;;;13.00;;
21941;SDS011;11135;54.192;15.670;2023-03-01T13:41:54;25.40;;;13.50;;
21941;SDS011;11135;54.192;15.670;2023-03-01T13:45:02;26.13;;;13.18;;
21941;SDS011;11135;54.192;15.670;2023-03-01T13:48:17;19.98;;;10.35;;
21941;SDS011;11135;54.192;15.670;2023-03-01T13:51:28;18.30;;;8.73;;
21941;SDS011;11135;54.192;15.670;2023-03-01T13:54:36;23.67;;;13.18;;
21941;SDS011;11135;54.192;15.670;2023-03-01T14:01:04;23.63;;;12.23;;
21941;SDS011;11135;54.192;15.670;2023-03-01T14:04:19;27.67;;;14.38;;
21941;SDS011;11135;54.192;15.670;2023-03-01T14:07:28;23.30;;;12.45;;
21941;SDS011;11135;54.192;15.670;2023-03-01T14:10:39;27.98;;;13.90;;
21941;SDS011;11135;54.192;15.670;2023-03-01T14:17:34;20.02;;;10.23;;
21941;SDS011;11135;54.192;15.670;2023-03-01T14:20:43;24.55;;;12.95;;
21941;SDS011;11135;54.192;15.670;2023-03-01T14:23:55;23.00;;;11.15;;
21941;SDS011;11135;54.192;15.670;2023-03-01T14:27:04;34.70;;;16.15;;
21941;SDS011;11135;54.192;15.670;2023-03-01T14:30:13;22.95;;;13.75;;
21941;SDS011;11135;54.192;15.670;2023-03-01T14:33:22;29.85;;;14.68;;
21941;SDS011;11135;54.192;15.670;2023-03-01T14:36:28;22.85;;;12.02;;
21941;SDS011;11135;54.192;15.670;2023-03-01T14:39:38;25.77;;;14.23;;
21941;SDS011;11135;54.192;15.670;2023-03-01T14:42:47;32.55;;;15.40;;
21941;SDS011;11135;54.192;15.670;2023-03-01T14:45:52;27.20;;;14.95;;
21941;SDS011;11135;54.192;15.670;2023-03-01T14:49:01;25.10;;;11.77;;
21941;SDS011;11135;54.192;15.670;2023-03-01T14:52:17;30.38;;;13.95;;
21941;SDS011;11135;54.192;15.670;2023-03-01T14:55:25;32.50;;;16.27;;
21941;SDS011;11135;54.192;15.670;2023-03-01T14:58:34;24.67;;;13.52;;
21941;SDS011;11135;54.192;15.670;2023-03-01T15:05:13;30.27;;;14.40;;
21941;SDS011;11135;54.192;15.670;2023-03-01T15:08:22;28.70;;;12.70;;
21941;SDS011;11135;54.192;15.670;2023-03-01T15:11:36;75.07;;;17.00;;
21941;SDS011;11135;54.192;15.670;2023-03-01T15:14:50;29.15;;;13.35;;
21941;SDS011;11135;54.192;15.670;2023-03-01T15:18:11;36.22;;;17.45;;
21941;SDS011;11135;54.192;15.670;2023-03-01T15:21:20;31.50;;;15.70;;
21941;SDS011;11135;54.192;15.670;2023-03-01T15:28:13;41.20;;;16.67;;
21941;SDS011;11135;54.192;15.670;2023-03-01T15:31:28;38.00;;;15.98;;
21941;SDS011;11135;54.192;15.670;2023-03-01T15:34:37;39.38;;;16.00;;
21941;SDS011;11135;54.192;15.670;2023-03-01T15:37:45;39.40;;;16.80;;
21941;SDS011;11135;54.192;15.670;2023-03-01T15:40:51;31.42;;;15.80;;
21941;SDS011;11135;54.192;15.670;2023-03-01T15:44:14;32.33;;;15.57;;
21941;SDS011;11135;54.192;15.670;2023-03-01T15:47:29;39.97;;;16.63;;
21941;SDS011;11135;54.192;15.670;2023-03-01T15:50:37;34.67;;;14.65;;
21941;SDS011;11135;54.192;15.670;2023-03-01T15:53:51;37.92;;;16.02;;
21941;SDS011;11135;54.192;15.670;2023-03-01T15:57:02;32.07;;;14.63;;
21941;SDS011;11135;54.192;15.670;2023-03-01T16:00:11;32.50;;;15.23;;
21941;SDS011;11135;54.192;15.670;2023-03-01T16:03:20;42.80;;;15.77;;
21941;SDS011;11135;54.192;15.670;2023-03-01T16:06:25;27.80;;;13.65;;
21941;SDS011;11135;54.192;15.670;2023-03-01T16:09:34;35.92;;;15.05;;
21941;SDS011;11135;54.192;15.670;2023-03-01T16:12:43;35.33;;;13.77;;
21941;SDS011;11135;54.192;15.670;2023-03-01T16:15:51;44.38;;;16.30;;
21941;SDS011;11135;54.192;15.670;2023-03-01T16:19:00;47.15;;;14.57;;
21941;SDS011;11135;54.192;15.670;2023-03-01T16:22:13;50.13;;;15.90;;
21941;SDS011;11135;54.192;15.670;2023-03-01T16:25:27;169.75;;;18.58;;
21941;SDS011;11135;54.192;15.670;2023-03-01T16:28:39;109.22;;;14.73;;
21941;SDS011;11135;54.192;15.670;2023-03-01T16:31:45;185.40;;;18.55;;
21941;SDS011;11135;54.192;15.670;2023-03-01T16:34:54;110.75;;;14.82;;
21941;SDS011;11135;54.192;15.670;2023-03-01T16:38:01;95.53;;;13.40;;
21941;SDS011;11135;54.192;15.670;2023-03-01T16:41:11;65.32;;;11.48;;
21941;SDS011;11135;54.192;15.670;2023-03-01T16:44:20;102.82;;;13.63;;
21941;SDS011;11135;54.192;15.670;2023-03-01T16:47:41;70.85;;;12.43;;
21941;SDS011;11135;54.192;15.670;2023-03-01T16:50:57;45.28;;;10.73;;
21941;SDS011;11135;54.192;15.670;2023-03-01T16:54:06;39.53;;;11.65;;
21941;SDS011;11135;54.192;15.670;2023-03-01T16:57:27;54.42;;;11.52;;
21941;SDS011;11135;54.192;15.670;2023-03-01T17:00:38;73.03;;;11.82;;
21941;SDS011;11135;54.192;15.670;2023-03-01T17:03:44;67.22;;;12.32;;
21941;SDS011;11135;54.192;15.670;2023-03-01T17:06:53;33.78;;;11.45;;
21941;SDS011;11135;54.192;15.670;2023-03-01T17:09:59;62.10;;;13.50;;
21941;SDS011;11135;54.192;15.670;2023-03-01T17:13:08;47.35;;;11.65;;
21941;SDS011;11135;54.192;15.670;2023-03-01T17:16:20;49.92;;;11.02;;
21941;SDS011;11135;54.192;15.670;2023-03-01T17:19:26;47.80;;;11.07;;
21941;SDS011;11135;54.192;15.670;2023-03-01T17:22:49;39.55;;;9.65;;
21941;SDS011;11135;54.192;15.670;2023-03-01T17:26:12;30.45;;;8.65;;
21941;SDS011;11135;54.192;15.670;2023-03-01T17:29:17;29.20;;;10.35;;
21941;SDS011;11135;54.192;15.670;2023-03-01T17:32:24;33.20;;;9.45;;
21941;SDS011;11135;54.192;15.670;2023-03-01T17:35:30;24.90;;;9.30;;
21941;SDS011;11135;54.192;15.670;2023-03-01T17:38:42;21.80;;;8.13;;
21941;SDS011;11135;54.192;15.670;2023-03-01T17:41:48;30.90;;;8.90;;
21941;SDS011;11135;54.192;15.670;2023-03-01T17:44:54;17.25;;;8.02;;
21941;SDS011;11135;54.192;15.670;2023-03-01T17:48:01;16.42;;;7.43;;
21941;SDS011;11135;54.192;15.670;2023-03-01T17:51:08;20.60;;;9.15;;
21941;SDS011;11135;54.192;15.670;2023-03-01T17:54:16;17.27;;;8.13;;
21941;SDS011;11135;54.192;15.670;2023-03-01T17:57:23;11.30;;;6.65;;
21941;SDS011;11135;54.192;15.670;2023-03-01T18:00:48;13.57;;;7.13;;
21941;SDS011;11135;54.192;15.670;2023-03-01T18:03:54;14.38;;;7.68;;
21941;SDS011;11135;54.192;15.670;2023-03-01T18:07:07;12.77;;;7.35;;
21941;SDS011;11135;54.192;15.670;2023-03-01T18:13:30;18.67;;;8.90;;
21941;SDS011;11135;54.192;15.670;2023-03-01T18:16:42;15.30;;;7.47;;
21941;SDS011;11135;54.192;15.670;2023-03-01T18:19:53;22.17;;;7.32;;
21941;SDS011;11135;54.192;15.670;2023-03-01T18:23:11;46.08;;;9.63;;
21941;SDS011;11135;54.192;15.670;2023-03-01T18:26:20;44.25;;;10.10;;
21941;SDS011;11135;54.192;15.670;2023-03-01T18:29:31;39.88;;;8.32;;
21941;SDS011;11135;54.192;15.670;2023-03-01T18:32:48;57.20;;;10.80;;
21941;SDS011;11135;54.192;15.670;2023-03-01T18:35:59;99.82;;;12.63;;
21941;SDS011;11135;54.192;15.670;2023-03-01T18:39:08;322.85;;;23.65;;
21941;SDS011;11135;54.192;15.670;2023-03-01T18:42:16;200.73;;;18.55;;
21941;SDS011;11135;54.192;15.670;2023-03-01T18:45:27;169.68;;;17.73;;
21941;SDS011;11135;54.192;15.670;2023-03-01T18:48:37;247.48;;;21.52;;
21941;SDS011;11135;54.192;15.670;2023-03-01T18:51:43;271.48;;;23.55;;
21941;SDS011;11135;54.192;15.670;2023-03-01T18:54:59;172.13;;;18.15;;
21941;SDS011;11135;54.192;15.670;2023-03-01T18:58:13;180.43;;;20.13;;
21941;SDS011;11135;54.192;15.670;2023-03-01T19:01:27;368.70;;;29.55;;
21941;SDS011;11135;54.192;15.670;2023-03-01T19:04:37;157.95;;;17.83;;
21941;SDS011;11135;54.192;15.670;2023-03-01T19:07:45;283.48;;;25.58;;
21941;SDS011;11135;54.192;15.670;2023-03-01T19:10:56;285.48;;;23.35;;
21941;SDS011;11135;54.192;15.670;2023-03-01T19:14:02;303.48;;;26.98;;
21941;SDS011;11135;54.192;15.670;2023-03-01T19:17:18;316.92;;;24.85;;
21941;SDS011;11135;54.192;15.670;2023-03-01T19:20:38;215.75;;;21.25;;
21941;SDS011;11135;54.192;15.670;2023-03-01T19:23:55;207.63;;;21.45;;
21941;SDS011;11135;54.192;15.670;2023-03-01T19:27:07;292.88;;;22.05;;
21941;SDS011;11135;54.192;15.670;2023-03-01T19:30:20;299.02;;;27.60;;
21941;SDS011;11135;54.192;15.670;2023-03-01T19:33:29;237.43;;;24.45;;
21941;SDS011;11135;54.192;15.670;2023-03-01T19:36:35;142.20;;;19.77;;
21941;SDS011;11135;54.192;15.670;2023-03-01T19:43:04;209.55;;;20.35;;
21941;SDS011;11135;54.192;15.670;2023-03-01T19:46:11;251.98;;;24.52;;
21941;SDS011;11135;54.192;15.670;2023-03-01T19:49:34;349.20;;;29.83;;
21941;SDS011;11135;54.192;15.670;2023-03-01T19:52:46;313.63;;;25.73;;
21941;SDS011;11135;54.192;15.670;2023-03-01T19:56:09;188.77;;;20.98;;
21941;SDS011;11135;54.192;15.670;2023-03-01T19:59:45;237.70;;;21.85;;
21941;SDS011;11135;54.192;15.670;2023-03-01T20:02:55;217.00;;;20.92;;